createdAt,value
2018-01-12T00:00:57.832Z,0
2018-01-12T00:01:57.356Z,0
2018-01-12T00:02:57.612Z,0
2018-01-12T00:03:57.174Z,0
2018-01-12T00:04:57.640Z,0
2018-01-12T00:05:57.905Z,0
2018-01-12T00:06:57.664Z,0
2018-01-12T00:07:57.434Z,0
2018-01-12T00:08:57.451Z,0
2018-01-12T00:09:57.473Z,0
2018-01-12T00:10:57.486Z,0
2018-01-12T00:11:57.500Z,0
2018-01-12T00:12:57.518Z,0
2018-01-12T00:13:57.788Z,0
2018-01-12T00:14:57.548Z,0
2018-01-12T00:15:57.822Z,0
2018-01-12T00:16:58.102Z,0
2018-01-12T00:17:58.103Z,0
2018-01-12T00:18:57.686Z,0
2018-01-12T00:19:58.121Z,0
2018-01-12T00:20:57.889Z,0
2018-01-12T00:21:57.394Z,0
2018-01-12T00:22:57.912Z,0
2018-01-12T00:23:57.674Z,0
2018-01-12T00:24:57.693Z,0
2018-01-12T00:25:57.910Z,0
2018-01-12T00:26:57.972Z,0
2018-01-12T00:27:57.988Z,0
2018-01-12T00:28:58.266Z,0
2018-01-12T00:29:58.265Z,0
2018-01-12T00:30:58.091Z,0
2018-01-12T00:31:57.544Z,0
2018-01-12T00:32:57.558Z,0
2018-01-12T00:33:57.879Z,0
2018-01-12T00:34:58.096Z,0
2018-01-12T00:35:58.117Z,0
2018-01-12T00:36:58.140Z,0
2018-01-12T00:37:58.406Z,0
2018-01-12T00:38:58.154Z,0
2018-01-12T00:39:58.426Z,0
2018-01-12T00:40:58.215Z,0
2018-01-12T00:41:57.943Z,0
2018-01-12T00:42:58.477Z,0
2018-01-12T00:43:57.980Z,0
2018-01-12T00:44:58.498Z,0
2018-01-12T00:45:58.511Z,0
2018-01-12T00:46:57.770Z,0
2018-01-12T00:47:58.084Z,0
2018-01-12T00:48:58.309Z,0
2018-01-12T00:49:58.574Z,0
2018-01-12T00:50:57.823Z,0
2018-01-12T00:51:58.211Z,0
2018-01-12T00:52:58.110Z,0
2018-01-12T00:53:58.382Z,0
2018-01-12T00:54:58.392Z,0
2018-01-12T00:55:58.657Z,0
2018-01-12T00:56:58.424Z,0
2018-01-12T00:57:58.437Z,0
2018-01-12T00:58:58.455Z,0
2018-01-12T00:59:57.966Z,0
2018-01-12T01:00:58.541Z,0
2018-01-12T01:01:58.746Z,0
2018-01-12T01:02:58.507Z,0
2018-01-12T01:03:58.528Z,0
2018-01-12T01:04:58.286Z,0
2018-01-12T01:05:58.560Z,0
2018-01-12T01:06:58.879Z,0
2018-01-12T01:07:58.336Z,0
2018-01-12T01:08:58.597Z,0
2018-01-12T01:09:58.879Z,0
2018-01-12T01:10:58.889Z,0
2018-01-12T01:11:58.747Z,0
2018-01-12T01:12:58.412Z,0
2018-01-12T01:13:58.932Z,0
2018-01-12T01:14:58.686Z,0
2018-01-12T01:15:58.941Z,0
2018-01-12T01:16:58.972Z,0
2018-01-12T01:17:58.984Z,0
2018-01-12T01:18:58.754Z,0
2018-01-12T01:19:59.041Z,0
2018-01-12T01:20:58.528Z,0
2018-01-12T01:21:58.589Z,0
2018-01-12T01:22:58.815Z,0
2018-01-12T01:23:58.818Z,0
2018-01-12T01:24:58.591Z,0
2018-01-12T01:25:58.596Z,0
2018-01-12T01:26:58.862Z,0
2018-01-12T01:27:58.877Z,0
2018-01-12T01:28:58.644Z,0
2018-01-12T01:29:58.916Z,0
2018-01-12T01:30:58.417Z,0
2018-01-12T01:31:59.222Z,0
2018-01-12T01:32:58.960Z,0
2018-01-12T01:33:58.473Z,0
2018-01-12T01:34:59.239Z,0
2018-01-12T01:35:58.747Z,0
2018-01-12T01:36:59.166Z,0
2018-01-12T01:37:58.540Z,0
2018-01-12T01:38:58.799Z,0
2018-01-12T01:39:58.807Z,0
2018-01-12T01:40:59.077Z,0
2018-01-12T01:41:59.187Z,0
2018-01-12T01:42:59.106Z,0
2018-01-12T01:43:59.375Z,0
2018-01-12T01:44:59.383Z,0
2018-01-12T01:45:59.152Z,0
2018-01-12T01:46:59.163Z,0
2018-01-12T01:47:59.426Z,0
2018-01-12T01:48:59.201Z,0
2018-01-12T01:49:58.708Z,0
2018-01-12T01:50:58.719Z,0
2018-01-12T01:51:59.090Z,0
2018-01-12T01:52:59.498Z,0
2018-01-12T01:53:59.014Z,0
2018-01-12T01:54:59.289Z,0
2018-01-12T01:55:59.052Z,0
2018-01-12T01:56:59.324Z,0
2018-01-12T01:57:59.076Z,0
2018-01-12T01:58:59.348Z,0
2018-01-12T01:59:59.354Z,0
2018-01-12T02:00:59.136Z,0
2018-01-12T02:01:59.639Z,0
2018-01-12T02:02:59.153Z,0
2018-01-12T02:03:59.429Z,0
2018-01-12T02:04:59.196Z,0
2018-01-12T02:05:59.204Z,0
2018-01-12T02:06:59.518Z,0
2018-01-12T02:07:59.724Z,0
2018-01-12T02:08:59.503Z,0
2018-01-12T02:09:59.251Z,0
2018-01-12T02:10:59.014Z,0
2018-01-12T02:11:59.536Z,0
2018-01-12T02:12:59.575Z,0
2018-01-12T02:13:59.315Z,0
2018-01-12T02:14:59.580Z,0
2018-01-12T02:15:59.354Z,0
2018-01-12T02:16:59.866Z,0
2018-01-12T02:17:59.882Z,0
2018-01-12T02:18:59.387Z,0
2018-01-12T02:19:59.906Z,0
2018-01-12T02:20:59.441Z,0
2018-01-12T02:21:59.481Z,0
2018-01-12T02:22:59.960Z,0
2018-01-12T02:23:59.719Z,0
2018-01-12T02:24:59.738Z,0
2018-01-12T02:25:59.747Z,0
2018-01-12T02:26:59.498Z,0
2018-01-12T02:27:59.774Z,0
2018-01-12T02:28:59.900Z,0
2018-01-12T02:29:59.556Z,0
2018-01-12T02:30:59.565Z,0
2018-01-12T02:31:59.581Z,0
2018-01-12T02:32:59.851Z,0
2018-01-12T02:33:59.355Z,0
2018-01-12T02:34:59.629Z,0
2018-01-12T02:35:59.920Z,0
2018-01-12T02:36:59.907Z,0
2018-01-12T02:37:59.721Z,0
2018-01-12T02:38:59.933Z,0
2018-01-12T02:39:59.941Z,0
2018-01-12T02:41:00.218Z,0
2018-01-12T02:41:59.738Z,0
2018-01-12T02:42:59.839Z,0
2018-01-12T02:44:00.013Z,0
2018-01-12T02:45:00.291Z,0
2018-01-12T02:46:00.046Z,0
2018-01-12T02:47:00.062Z,0
2018-01-12T02:48:00.095Z,0
2018-01-12T02:49:00.358Z,0
2018-01-12T02:49:59.839Z,0
2018-01-12T02:51:00.108Z,0
2018-01-12T02:52:00.136Z,0
2018-01-12T02:52:59.937Z,0
2018-01-12T02:54:00.158Z,0
2018-01-12T02:54:59.916Z,0
2018-01-12T02:56:00.433Z,0
2018-01-12T02:57:00.201Z,0
2018-01-12T02:58:00.273Z,0
2018-01-12T02:59:00.243Z,0
2018-01-12T03:00:00.254Z,0
2018-01-12T03:01:00.257Z,0
2018-01-12T03:02:00.581Z,0
2018-01-12T03:03:00.290Z,0
2018-01-12T03:04:00.053Z,0
2018-01-12T03:05:00.312Z,0
2018-01-12T03:06:00.333Z,0
2018-01-12T03:07:00.361Z,0
2018-01-12T03:08:00.468Z,0
2018-01-12T03:09:00.637Z,0
2018-01-12T03:10:00.135Z,0
2018-01-12T03:11:00.412Z,0
2018-01-12T03:12:00.167Z,0
2018-01-12T03:13:00.686Z,0
2018-01-12T03:14:00.709Z,0
2018-01-12T03:15:00.717Z,0
2018-01-12T03:16:00.226Z,0
2018-01-12T03:17:00.754Z,0
2018-01-12T03:18:00.372Z,0
2018-01-12T03:19:00.784Z,0
2018-01-12T03:20:00.066Z,0
2018-01-12T03:21:00.558Z,0
2018-01-12T03:22:00.569Z,0
2018-01-12T03:23:00.484Z,0
2018-01-12T03:24:00.600Z,0
2018-01-12T03:25:00.615Z,0
2018-01-12T03:26:00.379Z,0
2018-01-12T03:27:00.899Z,0
2018-01-12T03:28:00.411Z,0
2018-01-12T03:29:00.685Z,0
2018-01-12T03:30:00.692Z,0
2018-01-12T03:31:00.723Z,0
2018-01-12T03:32:00.722Z,0
2018-01-12T03:33:00.736Z,0
2018-01-12T03:34:00.495Z,0
2018-01-12T03:35:00.273Z,0
2018-01-12T03:36:00.775Z,0
2018-01-12T03:37:00.532Z,0
2018-01-12T03:38:01.103Z,0
2018-01-12T03:39:00.859Z,0
2018-01-12T03:40:00.584Z,0
2018-01-12T03:41:00.854Z,0
2018-01-12T03:42:00.625Z,0
2018-01-12T03:43:00.378Z,0
2018-01-12T03:44:00.903Z,0
2018-01-12T03:45:00.660Z,0
2018-01-12T03:46:00.933Z,0
2018-01-12T03:47:00.950Z,0
2018-01-12T03:48:00.964Z,0
2018-01-12T03:49:00.971Z,0
2018-01-12T03:50:00.983Z,0
2018-01-12T03:51:00.752Z,0
2018-01-12T03:52:00.770Z,0
2018-01-12T03:53:00.575Z,0
2018-01-12T03:54:00.803Z,0
2018-01-12T03:55:01.365Z,0
2018-01-12T03:56:00.826Z,0
2018-01-12T03:57:01.091Z,0
2018-01-12T03:58:01.361Z,0
2018-01-12T03:59:00.868Z,0
2018-01-12T04:00:00.883Z,0
2018-01-12T04:01:01.145Z,0
2018-01-12T04:02:01.432Z,0
2018-01-12T04:03:00.931Z,0
2018-01-12T04:04:01.456Z,0
2018-01-12T04:05:00.956Z,0
2018-01-12T04:06:01.473Z,0
2018-01-12T04:07:01.242Z,0
2018-01-12T04:08:01.511Z,0
2018-01-12T04:09:01.419Z,0
2018-01-12T04:10:01.534Z,0
2018-01-12T04:11:01.042Z,0
2018-01-12T04:12:01.567Z,0
2018-01-12T04:13:01.323Z,0
2018-01-12T04:14:01.335Z,0
2018-01-12T04:15:01.363Z,0
2018-01-12T04:16:01.114Z,0
2018-01-12T04:17:01.385Z,0
2018-01-12T04:18:01.142Z,0
2018-01-12T04:19:01.406Z,0
2018-01-12T04:20:01.177Z,0
2018-01-12T04:21:01.439Z,0
2018-01-12T04:22:01.758Z,0
2018-01-12T04:23:01.734Z,0
2018-01-12T04:24:01.231Z,0
2018-01-12T04:25:01.296Z,0
2018-01-12T04:26:01.011Z,0
2018-01-12T04:27:01.292Z,0
2018-01-12T04:28:01.545Z,0
2018-01-12T04:29:01.308Z,0
2018-01-12T04:30:01.633Z,0
2018-01-12T04:31:01.596Z,0
2018-01-12T04:32:01.854Z,0
2018-01-12T04:33:01.876Z,0
2018-01-12T04:34:01.379Z,0
2018-01-12T04:35:01.672Z,0
2018-01-12T04:36:01.660Z,0
2018-01-12T04:37:01.420Z,0
2018-01-12T04:38:01.943Z,0
2018-01-12T04:39:01.713Z,0
2018-01-12T04:40:01.970Z,0
2018-01-12T04:41:01.483Z,0
2018-01-12T04:42:01.750Z,0
2018-01-12T04:43:01.762Z,0
2018-01-12T04:44:01.788Z,0
2018-01-12T04:45:01.832Z,0
2018-01-12T04:46:01.293Z,0
2018-01-12T04:47:02.067Z,0
2018-01-12T04:48:01.574Z,0
2018-01-12T04:49:01.849Z,0
2018-01-12T04:50:02.152Z,0
2018-01-12T04:51:01.376Z,0
2018-01-12T04:52:01.895Z,0
2018-01-12T04:53:01.912Z,0
2018-01-12T04:54:01.943Z,0
2018-01-12T04:55:02.193Z,0
2018-01-12T04:56:02.205Z,0
2018-01-12T04:57:01.751Z,0
2018-01-12T04:58:01.743Z,0
2018-01-12T04:59:02.262Z,0
2018-01-12T05:00:01.928Z,0
2018-01-12T05:01:02.295Z,0
2018-01-12T05:02:01.804Z,0
2018-01-12T05:03:02.076Z,0
2018-01-12T05:04:02.116Z,0
2018-01-12T05:05:02.362Z,0
2018-01-12T05:06:02.376Z,0
2018-01-12T05:07:02.397Z,0
2018-01-12T05:08:02.419Z,0
2018-01-12T05:09:01.931Z,0
2018-01-12T05:10:02.173Z,0
2018-01-12T05:11:02.451Z,0
2018-01-12T05:12:02.210Z,0
2018-01-12T05:13:01.954Z,0
2018-01-12T05:14:01.715Z,0
2018-01-12T05:15:02.296Z,0
2018-01-12T05:16:02.255Z,0
2018-01-12T05:17:02.271Z,0
2018-01-12T05:18:02.289Z,0
2018-01-12T05:19:02.552Z,0
2018-01-12T05:20:02.310Z,0
2018-01-12T05:21:02.404Z,0
2018-01-12T05:22:02.700Z,0
2018-01-12T05:23:02.625Z,0
2018-01-12T05:24:02.128Z,0
2018-01-12T05:25:02.393Z,0
2018-01-12T05:26:02.411Z,0
2018-01-12T05:27:02.683Z,0
2018-01-12T05:28:01.934Z,0
2018-01-12T05:29:02.713Z,0
2018-01-12T05:30:02.526Z,0
2018-01-12T05:31:02.479Z,0
2018-01-12T05:32:02.751Z,0
2018-01-12T05:33:02.772Z,0
2018-01-12T05:34:02.529Z,0
2018-01-12T05:35:02.356Z,0
2018-01-12T05:36:02.559Z,0
2018-01-12T05:37:02.576Z,0
2018-01-12T05:38:02.649Z,0
2018-01-12T05:39:02.864Z,0
2018-01-12T05:40:02.622Z,0
2018-01-12T05:41:02.640Z,0
2018-01-12T05:42:02.897Z,0
2018-01-12T05:43:02.409Z,0
2018-01-12T05:44:02.425Z,0
2018-01-12T05:45:02.986Z,0
2018-01-12T05:46:02.729Z,0
2018-01-12T05:47:02.710Z,0
2018-01-12T05:48:02.975Z,0
2018-01-12T05:49:02.740Z,0
2018-01-12T05:50:02.762Z,0
2018-01-12T05:51:02.522Z,0
2018-01-12T05:52:03.068Z,0
2018-01-12T05:53:02.823Z,0
2018-01-12T05:54:02.831Z,0
2018-01-12T05:55:02.729Z,0
2018-01-12T05:56:02.602Z,0
2018-01-12T05:57:02.372Z,0
2018-01-12T05:58:02.639Z,0
2018-01-12T05:59:02.906Z,0
2018-01-12T06:00:02.719Z,0
2018-01-12T06:01:02.946Z,0
2018-01-12T06:02:02.950Z,0
2018-01-12T06:03:03.216Z,0
2018-01-12T06:04:02.734Z,0
2018-01-12T06:05:03.350Z,0
2018-01-12T06:06:03.304Z,0
2018-01-12T06:07:02.771Z,0
2018-01-12T06:08:03.037Z,0
2018-01-12T06:09:03.306Z,0
2018-01-12T06:10:02.816Z,0
2018-01-12T06:11:02.578Z,0
2018-01-12T06:12:03.099Z,0
2018-01-12T06:13:03.137Z,0
2018-01-12T06:14:03.134Z,0
2018-01-12T06:15:03.304Z,0
2018-01-12T06:16:02.656Z,0
2018-01-12T06:17:03.260Z,0
2018-01-12T06:18:03.452Z,0
2018-01-12T06:19:02.987Z,0
2018-01-12T06:20:03.225Z,0
2018-01-12T06:21:03.248Z,0
2018-01-12T06:22:03.252Z,0
2018-01-12T06:23:03.018Z,0
2018-01-12T06:24:03.282Z,0
2018-01-12T06:25:03.305Z,0
2018-01-12T06:26:03.550Z,0
2018-01-12T06:27:03.569Z,0
2018-01-12T06:28:03.088Z,0
2018-01-12T06:29:03.118Z,0
2018-01-12T06:30:03.371Z,0
2018-01-12T06:31:03.439Z,0
2018-01-12T06:32:03.210Z,0
2018-01-12T06:33:03.417Z,0
2018-01-12T06:34:03.687Z,0
2018-01-12T06:35:03.201Z,0
2018-01-12T06:36:03.717Z,0
2018-01-12T06:37:02.973Z,0
2018-01-12T06:38:03.484Z,0
2018-01-12T06:39:03.758Z,0
2018-01-12T06:40:03.278Z,0
2018-01-12T06:41:03.595Z,0
2018-01-12T06:42:03.555Z,0
2018-01-12T06:43:03.567Z,0
2018-01-12T06:44:03.575Z,0
2018-01-12T06:45:03.084Z,0
2018-01-12T06:46:03.657Z,0
2018-01-12T06:47:03.625Z,0
2018-01-12T06:48:03.407Z,0
2018-01-12T06:49:03.406Z,0
2018-01-12T06:50:03.670Z,0
2018-01-12T06:51:03.930Z,0
2018-01-12T06:52:04.055Z,0
2018-01-12T06:53:03.720Z,0
2018-01-12T06:54:03.734Z,0
2018-01-12T06:55:03.530Z,0
2018-01-12T06:56:03.756Z,0
2018-01-12T06:57:03.261Z,0
2018-01-12T06:58:03.545Z,0
2018-01-12T06:59:03.296Z,0
2018-01-12T07:00:03.831Z,0
2018-01-12T07:01:04.087Z,0
2018-01-12T07:02:03.894Z,0
2018-01-12T07:03:04.114Z,0
2018-01-12T07:04:03.623Z,0
2018-01-12T07:05:03.899Z,0
2018-01-12T07:06:03.901Z,0
2018-01-12T07:07:04.015Z,0
2018-01-12T07:08:03.936Z,0
2018-01-12T07:09:03.698Z,0
2018-01-12T07:10:03.708Z,0
2018-01-12T07:11:03.723Z,5
2018-01-12T07:12:04.001Z,5
2018-01-12T07:13:04.004Z,5
2018-01-12T07:14:03.780Z,5
2018-01-12T07:15:04.034Z,5
2018-01-12T07:16:03.803Z,5
2018-01-12T07:17:04.131Z,5
2018-01-12T07:18:04.327Z,5
2018-01-12T07:19:04.095Z,5
2018-01-12T07:20:04.159Z,5
2018-01-12T07:21:04.125Z,5
2018-01-12T07:22:04.405Z,10
2018-01-12T07:23:04.158Z,10
2018-01-12T07:24:04.169Z,10
2018-01-12T07:25:04.241Z,10
2018-01-12T07:26:03.691Z,10
2018-01-12T07:27:04.466Z,15
2018-01-12T07:28:04.225Z,15
2018-01-12T07:29:04.239Z,15
2018-01-12T07:30:04.258Z,15
2018-01-12T07:31:04.265Z,20
2018-01-12T07:32:04.178Z,20
2018-01-12T07:33:04.264Z,20
2018-01-12T07:34:04.059Z,20
2018-01-12T07:35:04.106Z,20
2018-01-12T07:36:03.843Z,20
2018-01-12T07:37:04.122Z,25
2018-01-12T07:38:04.801Z,25
2018-01-12T07:39:04.388Z,25
2018-01-12T07:40:04.406Z,25
2018-01-12T07:41:04.416Z,25
2018-01-12T07:42:04.179Z,25
2018-01-12T07:43:04.194Z,25
2018-01-12T07:44:04.474Z,25
2018-01-12T07:45:04.479Z,30
2018-01-12T07:46:03.986Z,30
2018-01-12T07:47:04.152Z,30
2018-01-12T07:48:04.532Z,30
2018-01-12T07:49:04.289Z,30
2018-01-12T07:50:04.299Z,30
2018-01-12T07:51:04.809Z,30
2018-01-12T07:52:04.572Z,30
2018-01-12T07:53:04.086Z,30
2018-01-12T07:54:04.608Z,35
2018-01-12T07:55:04.380Z,35
2018-01-12T07:56:04.646Z,35
2018-01-12T07:57:04.654Z,35
2018-01-12T07:58:04.422Z,35
2018-01-12T07:59:04.947Z,35
2018-01-12T08:00:04.712Z,35
2018-01-12T08:01:04.974Z,35
2018-01-12T08:02:04.794Z,35
2018-01-12T08:03:04.748Z,40
2018-01-12T08:04:04.748Z,40
2018-01-12T08:05:04.798Z,35
2018-01-12T08:06:04.795Z,35
2018-01-12T08:07:04.602Z,35
2018-01-12T08:08:04.643Z,35
2018-01-12T08:09:04.891Z,35
2018-01-12T08:10:04.353Z,35
2018-01-12T08:11:05.209Z,30
2018-01-12T08:12:05.190Z,30
2018-01-12T08:13:04.901Z,30
2018-01-12T08:14:04.409Z,35
2018-01-12T08:15:04.923Z,35
2018-01-12T08:16:05.026Z,35
2018-01-12T08:17:04.464Z,40
2018-01-12T08:18:04.724Z,40
2018-01-12T08:19:04.749Z,40
2018-01-12T08:20:04.751Z,40
2018-01-12T08:21:04.578Z,45
2018-01-12T08:22:04.581Z,45
2018-01-12T08:23:05.052Z,50
2018-01-12T08:24:05.353Z,50
2018-01-12T08:25:05.088Z,55
2018-01-12T08:26:05.094Z,55
2018-01-12T08:27:04.858Z,55
2018-01-12T08:28:05.377Z,60
2018-01-12T08:29:05.147Z,60
2018-01-12T08:30:05.415Z,60
2018-01-12T08:31:04.672Z,60
2018-01-12T08:32:04.953Z,65
2018-01-12T08:33:04.704Z,65
2018-01-12T08:34:05.217Z,65
2018-01-12T08:35:04.728Z,65
2018-01-12T08:36:05.001Z,65
2018-01-12T08:37:05.063Z,65
2018-01-12T08:38:05.037Z,65
2018-01-12T08:39:05.304Z,65
2018-01-12T08:40:04.815Z,70
2018-01-12T08:41:05.378Z,75
2018-01-12T08:42:04.583Z,80
2018-01-12T08:43:05.604Z,85
2018-01-12T08:44:05.125Z,85
2018-01-12T08:45:05.397Z,90
2018-01-12T08:46:05.415Z,90
2018-01-12T08:47:05.438Z,95
2018-01-12T08:48:05.695Z,100
2018-01-12T08:49:05.713Z,105
2018-01-12T08:50:05.223Z,110
2018-01-12T08:51:05.235Z,105
2018-01-12T08:52:05.449Z,105
2018-01-12T08:53:05.264Z,110
2018-01-12T08:54:05.321Z,120
2018-01-12T08:55:05.298Z,120
2018-01-12T08:56:05.566Z,125
2018-01-12T08:57:05.076Z,125
2018-01-12T08:58:05.605Z,125
2018-01-12T08:59:05.360Z,130
2018-01-12T09:00:05.693Z,130
2018-01-12T09:01:05.395Z,125
2018-01-12T09:02:05.170Z,120
2018-01-12T09:03:05.679Z,110
2018-01-12T09:04:05.443Z,105
2018-01-12T09:05:05.718Z,100
2018-01-12T09:06:05.979Z,100
2018-01-12T09:07:05.381Z,105
2018-01-12T09:08:05.756Z,105
2018-01-12T09:09:05.265Z,115
2018-01-12T09:10:05.535Z,115
2018-01-12T09:11:05.547Z,120
2018-01-12T09:12:05.565Z,120
2018-01-12T09:13:05.839Z,125
2018-01-12T09:14:05.346Z,130
2018-01-12T09:15:06.122Z,130
2018-01-12T09:16:05.633Z,130
2018-01-12T09:17:05.637Z,135
2018-01-12T09:18:05.949Z,140
2018-01-12T09:19:05.928Z,150
2018-01-12T09:20:05.689Z,150
2018-01-12T09:21:05.961Z,145
2018-01-12T09:22:06.280Z,140
2018-01-12T09:23:06.243Z,135
2018-01-12T09:24:05.756Z,135
2018-01-12T09:25:06.021Z,130
2018-01-12T09:26:06.044Z,130
2018-01-12T09:27:06.061Z,135
2018-01-12T09:28:05.818Z,140
2018-01-12T09:29:06.087Z,155
2018-01-12T09:30:05.598Z,145
2018-01-12T09:31:06.396Z,140
2018-01-12T09:32:06.150Z,150
2018-01-12T09:33:05.901Z,145
2018-01-12T09:34:05.912Z,145
2018-01-12T09:35:06.193Z,145
2018-01-12T09:36:06.454Z,145
2018-01-12T09:37:06.019Z,140
2018-01-12T09:38:06.490Z,145
2018-01-12T09:39:06.006Z,150
2018-01-12T09:40:06.263Z,155
2018-01-12T09:41:06.532Z,160
2018-01-12T09:42:06.553Z,165
2018-01-12T09:43:06.064Z,165
2018-01-12T09:44:06.327Z,170
2018-01-12T09:45:06.601Z,185
2018-01-12T09:46:06.616Z,195
2018-01-12T09:47:06.388Z,200
2018-01-12T09:48:06.647Z,205
2018-01-12T09:49:06.663Z,210
2018-01-12T09:50:06.436Z,210
2018-01-12T09:51:06.698Z,215
2018-01-12T09:52:05.752Z,235
2018-01-12T09:53:06.726Z,225
2018-01-12T09:54:06.502Z,210
2018-01-12T09:55:06.260Z,205
2018-01-12T09:56:06.045Z,220
2018-01-12T09:57:06.032Z,245
2018-01-12T09:58:06.558Z,240
2018-01-12T09:59:06.579Z,225
2018-01-12T10:00:06.621Z,225
2018-01-12T10:01:06.350Z,225
2018-01-12T10:02:06.369Z,225
2018-01-12T10:03:06.889Z,245
2018-01-12T10:04:06.907Z,255
2018-01-12T10:05:06.415Z,255
2018-01-12T10:06:06.947Z,260
2018-01-12T10:07:06.294Z,455
2018-01-12T10:08:06.718Z,435
2018-01-12T10:09:06.734Z,285
2018-01-12T10:10:06.498Z,250
2018-01-12T10:11:06.759Z,245
2018-01-12T10:12:07.041Z,255
2018-01-12T10:13:06.552Z,250
2018-01-12T10:14:06.817Z,240
2018-01-12T10:15:06.843Z,220
2018-01-12T10:16:06.853Z,205
2018-01-12T10:17:06.618Z,205
2018-01-12T10:18:06.877Z,215
2018-01-12T10:19:06.392Z,235
2018-01-12T10:20:06.161Z,255
2018-01-12T10:21:06.934Z,250
2018-01-12T10:22:07.401Z,240
2018-01-12T10:23:06.963Z,375
2018-01-12T10:24:06.984Z,940
2018-01-12T10:25:06.749Z,1010
2018-01-12T10:26:07.013Z,1045
2018-01-12T10:27:06.780Z,1090
2018-01-12T10:28:06.545Z,740
2018-01-12T10:29:07.366Z,440
2018-01-12T10:30:07.128Z,390
2018-01-12T10:31:06.351Z,385
2018-01-12T10:32:07.133Z,600
2018-01-12T10:33:07.392Z,745
2018-01-12T10:34:07.189Z,1060
2018-01-12T10:35:07.184Z,725
2018-01-12T10:36:07.247Z,1070
2018-01-12T10:37:06.459Z,895
2018-01-12T10:38:06.537Z,375
2018-01-12T10:39:06.748Z,375
2018-01-12T10:40:07.023Z,575
2018-01-12T10:41:07.284Z,545
2018-01-12T10:42:07.306Z,380
2018-01-12T10:43:07.331Z,315
2018-01-12T10:44:07.104Z,675
2018-01-12T10:45:07.117Z,930
2018-01-12T10:46:07.386Z,420
2018-01-12T10:47:06.903Z,870
2018-01-12T10:48:07.425Z,585
2018-01-12T10:49:07.209Z,1280
2018-01-12T10:50:06.712Z,1240
2018-01-12T10:51:07.246Z,460
2018-01-12T10:52:07.264Z,375
2018-01-12T10:53:07.579Z,415
2018-01-12T10:54:07.303Z,425
2018-01-12T10:55:07.071Z,390
2018-01-12T10:56:07.586Z,755
2018-01-12T10:57:07.610Z,680
2018-01-12T10:58:07.393Z,550
2018-01-12T10:59:07.159Z,450
2018-01-12T11:00:07.169Z,545
2018-01-12T11:01:07.190Z,1020
2018-01-12T11:02:07.469Z,430
2018-01-12T11:03:07.504Z,395
2018-01-12T11:04:07.255Z,370
2018-01-12T11:05:07.527Z,405
2018-01-12T11:06:07.553Z,550
2018-01-12T11:07:07.568Z,470
2018-01-12T11:08:07.390Z,405
2018-01-12T11:09:07.618Z,410
2018-01-12T11:10:07.635Z,400
2018-01-12T11:11:08.148Z,385
2018-01-12T11:12:07.666Z,355
2018-01-12T11:13:07.684Z,345
2018-01-12T11:14:07.481Z,370
2018-01-12T11:15:07.730Z,385
2018-01-12T11:16:08.000Z,460
2018-01-12T11:17:07.775Z,455
2018-01-12T11:18:08.053Z,385
2018-01-12T11:19:08.063Z,375
2018-01-12T11:20:08.330Z,375
2018-01-12T11:21:07.849Z,415
2018-01-12T11:22:08.123Z,395
2018-01-12T11:23:07.689Z,370
2018-01-12T11:24:07.906Z,355
2018-01-12T11:25:08.427Z,340
2018-01-12T11:26:07.947Z,335
2018-01-12T11:27:07.969Z,355
2018-01-12T11:28:08.248Z,345
2018-01-12T11:29:08.019Z,355
2018-01-12T11:30:08.027Z,390
2018-01-12T11:31:08.045Z,440
2018-01-12T11:32:08.070Z,550
2018-01-12T11:33:08.135Z,1190
2018-01-12T11:34:08.352Z,470
2018-01-12T11:35:07.870Z,450
2018-01-12T11:36:07.894Z,510
2018-01-12T11:37:08.682Z,760
2018-01-12T11:38:08.488Z,645
2018-01-12T11:39:08.214Z,660
2018-01-12T11:40:08.233Z,610
2018-01-12T11:41:08.486Z,475
2018-01-12T11:42:08.791Z,445
2018-01-12T11:43:08.547Z,480
2018-01-12T11:44:08.304Z,605
2018-01-12T11:45:08.074Z,650
2018-01-12T11:46:08.369Z,570
2018-01-12T11:47:08.114Z,720
2018-01-12T11:48:08.643Z,1285
2018-01-12T11:49:08.912Z,1430
2018-01-12T11:50:08.432Z,1450
2018-01-12T11:51:07.950Z,855
2018-01-12T11:52:08.478Z,1530
2018-01-12T11:53:08.789Z,570
2018-01-12T11:54:08.761Z,1275
2018-01-12T11:55:08.541Z,1510
2018-01-12T11:56:08.560Z,1400
2018-01-12T11:57:09.093Z,1520
2018-01-12T11:58:09.106Z,720
2018-01-12T11:59:08.616Z,540
2018-01-12T12:00:08.416Z,575
2018-01-12T12:01:09.187Z,585
2018-01-12T12:02:08.951Z,890
2018-01-12T12:03:09.222Z,915
2018-01-12T12:04:08.988Z,1050
2018-01-12T12:05:09.048Z,1745
2018-01-12T12:06:08.791Z,1580
2018-01-12T12:07:09.066Z,1720
2018-01-12T12:08:08.626Z,1590
2018-01-12T12:09:08.868Z,1775
2018-01-12T12:10:09.165Z,1350
2018-01-12T12:11:08.914Z,1385
2018-01-12T12:12:09.455Z,595
2018-01-12T12:13:08.979Z,755
2018-01-12T12:14:09.046Z,625
2018-01-12T12:15:09.545Z,1475
2018-01-12T12:16:09.349Z,1265
2018-01-12T12:17:09.096Z,500
2018-01-12T12:18:09.343Z,445
2018-01-12T12:19:09.370Z,395
2018-01-12T12:20:09.647Z,350
2018-01-12T12:21:09.216Z,320
2018-01-12T12:22:09.701Z,300
2018-01-12T12:23:09.016Z,310
2018-01-12T12:24:09.496Z,315
2018-01-12T12:25:09.013Z,350
2018-01-12T12:26:09.030Z,395
2018-01-12T12:27:09.316Z,460
2018-01-12T12:28:09.336Z,735
2018-01-12T12:29:09.606Z,755
2018-01-12T12:30:09.128Z,460
2018-01-12T12:31:09.398Z,465
2018-01-12T12:32:09.928Z,480
2018-01-12T12:33:09.444Z,510
2018-01-12T12:34:09.478Z,550
2018-01-12T12:35:09.744Z,490
2018-01-12T12:36:09.770Z,475
2018-01-12T12:37:09.284Z,545
2018-01-12T12:38:09.357Z,765
2018-01-12T12:39:09.333Z,1225
2018-01-12T12:40:09.862Z,815
2018-01-12T12:41:10.141Z,1305
2018-01-12T12:42:09.900Z,1510
2018-01-12T12:43:09.517Z,1660
2018-01-12T12:44:09.435Z,915
2018-01-12T12:45:09.716Z,675
2018-01-12T12:46:09.508Z,450
2018-01-12T12:47:10.275Z,415
2018-01-12T12:48:09.780Z,405
2018-01-12T12:49:10.305Z,475
2018-01-12T12:50:10.072Z,825
2018-01-12T12:51:10.108Z,770
2018-01-12T12:52:09.869Z,625
2018-01-12T12:53:09.943Z,430
2018-01-12T12:54:10.158Z,410
2018-01-12T12:55:10.193Z,400
2018-01-12T12:56:09.952Z,415
2018-01-12T12:57:10.236Z,355
2018-01-12T12:58:09.895Z,295
2018-01-12T12:59:10.272Z,305
2018-01-12T13:00:09.787Z,415
2018-01-12T13:01:10.361Z,385
2018-01-12T13:02:09.837Z,355
2018-01-12T13:03:10.154Z,330
2018-01-12T13:04:09.882Z,345
2018-01-12T13:05:09.642Z,315
2018-01-12T13:06:09.917Z,280
2018-01-12T13:07:10.238Z,260
2018-01-12T13:08:09.949Z,245
2018-01-12T13:09:09.989Z,220
2018-01-12T13:10:10.000Z,175
2018-01-12T13:11:10.556Z,140
2018-01-12T13:12:10.544Z,150
2018-01-12T13:13:10.565Z,190
2018-01-12T13:14:10.336Z,215
2018-01-12T13:15:10.652Z,215
2018-01-12T13:16:10.631Z,190
2018-01-12T13:17:10.650Z,165
2018-01-12T13:18:10.208Z,135
2018-01-12T13:19:10.178Z,135
2018-01-12T13:20:10.450Z,145
2018-01-12T13:21:10.718Z,145
2018-01-12T13:22:10.234Z,145
2018-01-12T13:23:10.718Z,145
2018-01-12T13:24:10.007Z,145
2018-01-12T13:25:10.514Z,150
2018-01-12T13:26:10.312Z,145
2018-01-12T13:27:10.620Z,135
2018-01-12T13:28:10.861Z,130
2018-01-12T13:29:10.877Z,125
2018-01-12T13:30:10.389Z,115
2018-01-12T13:31:10.407Z,110
2018-01-12T13:32:10.176Z,110
2018-01-12T13:33:10.744Z,115
2018-01-12T13:34:10.712Z,115
2018-01-12T13:35:10.991Z,120
2018-01-12T13:36:10.502Z,130
2018-01-12T13:37:11.019Z,145
2018-01-12T13:38:11.293Z,150
2018-01-12T13:39:10.872Z,150
2018-01-12T13:40:11.080Z,160
2018-01-12T13:41:10.590Z,195
2018-01-12T13:42:10.861Z,220
2018-01-12T13:43:11.129Z,235
2018-01-12T13:44:10.896Z,235
2018-01-12T13:45:11.187Z,240
2018-01-12T13:46:11.180Z,265
2018-01-12T13:47:10.698Z,270
2018-01-12T13:48:11.267Z,275
2018-01-12T13:49:10.988Z,300
2018-01-12T13:50:11.006Z,320
2018-01-12T13:51:11.291Z,335
2018-01-12T13:52:10.784Z,360
2018-01-12T13:53:11.157Z,385
2018-01-12T13:54:11.325Z,390
2018-01-12T13:55:10.587Z,400
2018-01-12T13:56:10.860Z,395
2018-01-12T13:57:11.137Z,405
2018-01-12T13:58:11.399Z,410
2018-01-12T13:59:11.695Z,405
2018-01-12T14:00:10.934Z,395
2018-01-12T14:01:11.458Z,395
2018-01-12T14:02:11.471Z,385
2018-01-12T14:03:11.291Z,375
2018-01-12T14:04:11.532Z,365
2018-01-12T14:05:11.782Z,360
2018-01-12T14:06:11.297Z,350
2018-01-12T14:07:10.807Z,345
2018-01-12T14:08:11.342Z,340
2018-01-12T14:09:11.865Z,330
2018-01-12T14:10:11.644Z,320
2018-01-12T14:11:11.638Z,310
2018-01-12T14:12:11.153Z,300
2018-01-12T14:13:11.171Z,290
2018-01-12T14:14:11.697Z,265
2018-01-12T14:15:11.468Z,245
2018-01-12T14:16:11.732Z,240
2018-01-12T14:17:11.572Z,235
2018-01-12T14:18:11.570Z,235
2018-01-12T14:19:11.532Z,235